createdAt,value
2023-05-05T00:01:09.632Z,13.30
2023-05-05T00:03:36.551Z,13.20
2023-05-05T00:06:03.456Z,13.20
2023-05-05T00:08:30.090Z,13.20
2023-05-05T00:10:57.609Z,13.20
2023-05-05T00:13:24.473Z,13.20
2023-05-05T00:15:51.902Z,13.20
2023-05-05T00:18:18.546Z,13.20
2023-05-05T00:20:47.142Z,13.20
2023-05-05T00:23:14.168Z,13.20
2023-05-05T00:25:41.136Z,13.10
2023-05-05T00:28:07.791Z,13.10
2023-05-05T00:31:21.397Z,13.10
2023-05-05T00:33:48.236Z,13.00
2023-05-05T00:36:14.909Z,13.00
2023-05-05T00:38:41.514Z,12.90
2023-05-05T00:41:08.236Z,12.90
2023-05-05T00:43:34.824Z,12.90
2023-05-05T00:46:02.254Z,12.80
2023-05-05T00:48:29.668Z,12.80
2023-05-05T00:50:56.273Z,12.80
2023-05-05T00:53:22.932Z,12.70
2023-05-05T00:55:49.653Z,12.70
2023-05-05T00:58:16.382Z,12.70
2023-05-05T01:00:43.006Z,12.60
2023-05-05T01:03:09.900Z,12.60
2023-05-05T01:05:42.751Z,12.60
2023-05-05T01:08:15.322Z,12.60
2023-05-05T01:10:46.381Z,12.60
2023-05-05T01:13:21.267Z,12.50
2023-05-05T01:15:53.947Z,12.50
2023-05-05T01:18:38.960Z,12.50
2023-05-05T01:21:08.556Z,12.40
2023-05-05T01:24:22.176Z,12.40
2023-05-05T01:27:00.992Z,12.30
2023-05-05T01:29:30.381Z,12.30
2023-05-05T01:32:01.558Z,12.30
2023-05-05T01:34:29.256Z,12.20
2023-05-05T01:37:03.062Z,12.20
2023-05-05T01:39:30.401Z,12.30
2023-05-05T01:41:57.153Z,12.20
2023-05-05T01:44:23.833Z,12.30
2023-05-05T01:46:50.415Z,12.20
2023-05-05T01:49:17.075Z,12.20
2023-05-05T01:51:43.720Z,12.20
2023-05-05T01:54:10.552Z,12.20
2023-05-05T01:56:37.792Z,12.10
2023-05-05T01:59:04.570Z,12.10
2023-05-05T02:01:31.242Z,12.10
2023-05-05T02:03:57.853Z,12.10
2023-05-05T02:06:24.507Z,12.10
2023-05-05T02:08:51.291Z,12.10
2023-05-05T02:11:18.028Z,12.10
2023-05-05T02:13:44.773Z,12.00
2023-05-05T02:16:11.626Z,12.00
2023-05-05T02:18:38.922Z,12.00
2023-05-05T02:21:05.565Z,11.90
2023-05-05T02:23:32.192Z,11.90
2023-05-05T02:26:00.506Z,11.90
2023-05-05T02:28:50.478Z,11.90
2023-05-05T02:31:17.256Z,11.90
2023-05-05T02:33:44.454Z,11.90
2023-05-05T02:36:20.733Z,11.90
2023-05-05T02:38:47.364Z,11.90
2023-05-05T02:41:16.561Z,12.00
2023-05-05T02:43:43.234Z,12.00
2023-05-05T02:46:09.992Z,12.00
2023-05-05T02:48:36.659Z,12.10
2023-05-05T02:51:03.362Z,12.20
2023-05-05T02:53:30.283Z,12.20
2023-05-05T02:56:15.838Z,12.20
2023-05-05T02:58:46.141Z,12.30
2023-05-05T03:01:12.839Z,12.40
2023-05-05T03:03:40.964Z,12.40
2023-05-05T03:06:15.015Z,12.40
2023-05-05T03:08:56.777Z,12.50
2023-05-05T03:11:27.907Z,12.50
2023-05-05T03:14:14.001Z,12.50
2023-05-05T03:16:40.910Z,12.50
2023-05-05T03:19:08.679Z,12.60
2023-05-05T03:21:35.292Z,12.60
2023-05-05T03:24:11.220Z,12.60
2023-05-05T03:26:37.809Z,12.60
2023-05-05T03:29:07.026Z,12.60
2023-05-05T03:31:33.642Z,12.60
2023-05-05T03:34:00.247Z,12.70
2023-05-05T03:36:29.402Z,12.70
2023-05-05T03:38:56.299Z,12.70
2023-05-05T03:41:23.721Z,12.80
2023-05-05T03:43:50.846Z,12.80
2023-05-05T03:46:17.593Z,12.80
2023-05-05T03:48:44.288Z,12.80
2023-05-05T03:51:10.993Z,12.90
2023-05-05T03:53:37.656Z,12.90
2023-05-05T03:56:04.397Z,12.90
2023-05-05T03:58:31.219Z,12.90
2023-05-05T04:00:57.869Z,12.90
2023-05-05T04:03:24.591Z,12.90
2023-05-05T04:05:51.341Z,12.90
2023-05-05T04:08:18.135Z,12.80
2023-05-05T04:10:44.969Z,12.80
2023-05-05T04:13:11.942Z,12.90
2023-05-05T04:15:38.765Z,12.80
2023-05-05T04:18:05.537Z,12.80
2023-05-05T04:20:34.748Z,12.80
2023-05-05T04:23:01.336Z,12.70
2023-05-05T04:25:28.022Z,12.70
2023-05-05T04:27:54.628Z,12.70
2023-05-05T04:30:21.279Z,12.60
2023-05-05T04:32:49.133Z,12.60
2023-05-05T04:35:15.773Z,12.60
2023-05-05T04:37:42.412Z,12.60
2023-05-05T04:40:09.355Z,12.60
2023-05-05T04:42:36.632Z,12.70
2023-05-05T04:45:03.575Z,12.60
2023-05-05T04:47:30.290Z,12.60
2023-05-05T04:49:56.986Z,12.70
2023-05-05T04:52:23.649Z,12.70
2023-05-05T04:54:50.404Z,12.80
2023-05-05T04:57:17.066Z,12.80
2023-05-05T04:59:43.740Z,12.90
2023-05-05T05:02:10.461Z,12.90
2023-05-05T05:04:37.179Z,13.00
2023-05-05T05:07:03.793Z,13.00
2023-05-05T05:09:30.420Z,13.10
2023-05-05T05:12:00.984Z,13.10
2023-05-05T05:14:28.200Z,13.10
2023-05-05T05:16:55.058Z,13.10
2023-05-05T05:19:21.771Z,13.20
2023-05-05T05:21:48.437Z,13.20
2023-05-05T05:24:15.087Z,13.30
2023-05-05T05:26:41.698Z,13.30
2023-05-05T05:29:08.456Z,13.40
2023-05-05T05:31:36.701Z,13.50
2023-05-05T05:34:03.642Z,13.50
2023-05-05T05:36:31.500Z,13.70
2023-05-05T05:38:58.279Z,13.80
2023-05-05T05:41:25.505Z,13.90
2023-05-05T05:43:52.108Z,13.90
2023-05-05T05:46:19.385Z,14.00
2023-05-05T05:48:46.098Z,13.90
2023-05-05T05:51:12.693Z,14.00
2023-05-05T05:53:39.304Z,14.00
2023-05-05T05:56:06.221Z,14.10
2023-05-05T05:58:33.317Z,14.10
2023-05-05T06:01:00.333Z,14.10
2023-05-05T06:03:27.240Z,14.10
2023-05-05T06:05:54.047Z,14.10
2023-05-05T06:08:22.020Z,14.10
2023-05-05T06:10:50.025Z,14.20
2023-05-05T06:13:17.004Z,14.30
2023-05-05T06:15:43.785Z,14.40
2023-05-05T06:18:10.644Z,14.40
2023-05-05T06:20:37.399Z,14.40
2023-05-05T06:23:04.183Z,14.40
2023-05-05T06:25:31.100Z,14.40
2023-05-05T06:27:57.785Z,14.40
2023-05-05T06:30:26.086Z,14.40
2023-05-05T06:32:54.391Z,14.50
2023-05-05T06:35:22.088Z,14.40
2023-05-05T06:37:48.768Z,14.50
2023-05-05T06:40:15.678Z,14.50
2023-05-05T06:42:42.435Z,14.50
2023-05-05T06:45:09.289Z,14.60
2023-05-05T06:47:36.492Z,14.70
2023-05-05T06:50:03.784Z,14.80
2023-05-05T06:52:30.516Z,14.80
2023-05-05T06:54:57.135Z,14.80
2023-05-05T06:57:23.924Z,14.80
2023-05-05T06:59:50.607Z,14.90
2023-05-05T07:02:17.300Z,14.90
2023-05-05T07:04:44.305Z,15.00
2023-05-05T07:07:10.899Z,15.10
2023-05-05T07:09:37.618Z,15.10
2023-05-05T07:12:04.453Z,15.20
2023-05-05T07:14:31.085Z,15.20
2023-05-05T07:16:57.995Z,15.20
2023-05-05T07:19:25.082Z,15.30
2023-05-05T07:21:52.060Z,15.30
2023-05-05T07:24:18.784Z,15.30
2023-05-05T07:26:45.405Z,15.40
2023-05-05T07:29:12.091Z,15.50
2023-05-05T07:31:38.828Z,15.60
2023-05-05T07:34:05.576Z,15.60
2023-05-05T07:36:32.892Z,15.60
2023-05-05T07:39:00.533Z,15.60
2023-05-05T07:41:27.206Z,15.70
2023-05-05T07:43:54.010Z,15.80
2023-05-05T07:46:20.740Z,15.80
2023-05-05T07:48:47.750Z,15.80
2023-05-05T07:51:14.384Z,15.70
2023-05-05T07:53:41.163Z,15.70
2023-05-05T07:56:09.018Z,15.70
2023-05-05T07:58:36.307Z,15.70
2023-05-05T08:01:06.775Z,15.70
2023-05-05T08:03:33.871Z,15.70
2023-05-05T08:06:05.843Z,15.70
2023-05-05T08:08:32.560Z,15.80
2023-05-05T08:10:59.358Z,15.80
2023-05-05T08:13:26.228Z,16.00
2023-05-05T08:15:53.136Z,16.20
2023-05-05T08:18:19.815Z,16.30
2023-05-05T08:20:47.212Z,16.30
2023-05-05T08:23:14.029Z,16.20
2023-05-05T08:25:40.871Z,16.00
2023-05-05T08:28:07.546Z,15.90
2023-05-05T08:30:34.414Z,16.00
2023-05-05T08:33:01.143Z,16.10
2023-05-05T08:35:28.145Z,16.20
2023-05-05T08:37:56.041Z,16.30
2023-05-05T08:40:26.409Z,16.40
2023-05-05T08:42:53.181Z,16.30
2023-05-05T08:45:19.870Z,16.50
2023-05-05T08:47:46.611Z,16.70
2023-05-05T08:50:13.345Z,16.80
2023-05-05T08:52:41.463Z,17.00
2023-05-05T08:55:28.444Z,17.20
2023-05-05T08:57:56.467Z,17.20
2023-05-05T09:00:23.359Z,17.20
2023-05-05T09:02:50.189Z,17.10
2023-05-05T09:05:17.390Z,17.10
2023-05-05T09:07:44.312Z,17.10
2023-05-05T09:10:12.427Z,17.20
2023-05-05T09:12:42.234Z,17.40
2023-05-05T09:15:12.735Z,17.60
2023-05-05T09:17:39.746Z,17.90
2023-05-05T09:20:07.440Z,18.10
2023-05-05T09:22:35.026Z,18.20
2023-05-05T09:25:01.942Z,18.10
2023-05-05T09:27:28.561Z,17.90
2023-05-05T09:29:56.314Z,17.80
2023-05-05T09:32:24.303Z,17.80
2023-05-05T09:34:59.163Z,17.80
2023-05-05T09:37:29.446Z,17.90
2023-05-05T09:39:56.755Z,18.00
2023-05-05T09:42:23.432Z,18.20
2023-05-05T09:44:51.639Z,18.30
2023-05-05T09:47:28.920Z,18.30
2023-05-05T09:49:57.768Z,18.30
2023-05-05T09:52:24.886Z,18.30
2023-05-05T09:54:56.150Z,18.50
2023-05-05T09:57:29.755Z,18.60
2023-05-05T09:59:58.089Z,18.70
2023-05-05T10:02:32.065Z,18.80
2023-05-05T10:05:04.923Z,18.80
2023-05-05T10:07:31.609Z,19.00
2023-05-05T10:09:58.406Z,19.20
2023-05-05T10:12:25.419Z,19.40
2023-05-05T10:14:55.828Z,19.50
2023-05-05T10:17:22.694Z,19.60
2023-05-05T10:19:52.556Z,19.70
2023-05-05T10:22:19.922Z,19.70
2023-05-05T10:24:47.438Z,19.80
2023-05-05T10:27:23.417Z,19.80
2023-05-05T10:30:03.862Z,19.70
2023-05-05T10:32:54.367Z,19.50
2023-05-05T10:35:28.223Z,19.40
2023-05-05T10:37:55.058Z,19.50
2023-05-05T10:40:22.106Z,19.70
2023-05-05T10:42:51.995Z,19.70
2023-05-05T10:45:18.875Z,19.40
2023-05-05T10:47:45.620Z,19.20
2023-05-05T10:50:21.960Z,18.90
2023-05-05T10:52:48.654Z,18.70
2023-05-05T10:55:21.401Z,18.70
2023-05-05T10:57:52.542Z,18.60
2023-05-05T11:00:38.234Z,18.80
2023-05-05T11:03:16.914Z,19.10
2023-05-05T11:06:02.282Z,19.70
2023-05-05T11:08:29.028Z,19.90
2023-05-05T11:10:55.922Z,20.00
2023-05-05T11:13:22.992Z,20.30
2023-05-05T11:15:54.316Z,20.30
2023-05-05T11:18:36.700Z,20.10
2023-05-05T11:21:16.041Z,20.40
2023-05-05T11:23:52.033Z,21.00
2023-05-05T11:26:19.548Z,21.00
2023-05-05T11:28:55.931Z,21.20
2023-05-05T11:31:22.760Z,21.40
2023-05-05T11:33:49.459Z,21.50
2023-05-05T11:36:16.504Z,21.30
2023-05-05T11:39:01.609Z,21.10
2023-05-05T11:41:28.258Z,20.90
2023-05-05T11:44:10.621Z,20.70
2023-05-05T11:46:37.822Z,20.70
2023-05-05T11:49:04.757Z,20.80
2023-05-05T11:51:31.775Z,20.90
2023-05-05T11:53:59.248Z,21.30
2023-05-05T11:56:26.345Z,21.60
2023-05-05T11:59:09.434Z,21.60
2023-05-05T12:01:39.527Z,21.80
2023-05-05T12:04:06.612Z,22.30
2023-05-05T12:06:33.968Z,22.30
2023-05-05T12:09:01.163Z,22.30
2023-05-05T12:11:28.011Z,22.50
2023-05-05T12:14:10.688Z,23.00
2023-05-05T12:16:37.903Z,22.90
2023-05-05T12:19:05.865Z,23.10
2023-05-05T12:21:32.754Z,23.10
2023-05-05T12:23:59.846Z,22.70
2023-05-05T12:26:27.620Z,22.80
2023-05-05T12:28:54.905Z,22.80
2023-05-05T12:31:21.779Z,23.30
2023-05-05T12:33:48.714Z,23.90
2023-05-05T12:36:15.447Z,24.30
2023-05-05T12:38:42.211Z,24.80
2023-05-05T12:41:08.775Z,25.00
2023-05-05T12:43:35.491Z,25.20
2023-05-05T12:46:08.968Z,24.70
2023-05-05T12:48:36.439Z,24.50
2023-05-05T12:51:18.226Z,24.30
2023-05-05T12:53:45.326Z,24.10
2023-05-05T12:56:31.015Z,23.80
2023-05-05T12:58:57.677Z,23.80
2023-05-05T13:01:24.465Z,24.20
2023-05-05T13:04:23.993Z,23.90
2023-05-05T13:06:54.032Z,23.20
2023-05-05T13:09:24.782Z,22.90
2023-05-05T13:11:51.594Z,22.90
2023-05-05T13:14:18.442Z,22.90
2023-05-05T13:16:45.206Z,23.20
2023-05-05T13:19:11.883Z,23.80
2023-05-05T13:21:38.601Z,24.80
2023-05-05T13:24:22.894Z,25.70
2023-05-05T13:26:55.987Z,26.60
2023-05-05T13:29:24.660Z,26.30
2023-05-05T13:31:54.049Z,25.30
2023-05-05T13:34:20.849Z,24.30
2023-05-05T13:36:47.478Z,23.80
2023-05-05T13:39:14.251Z,24.60
2023-05-05T13:41:40.990Z,25.40
2023-05-05T13:44:07.830Z,26.10
2023-05-05T13:46:34.512Z,26.70
2023-05-05T13:49:01.203Z,26.40
2023-05-05T13:51:27.846Z,26.00
2023-05-05T13:53:54.634Z,25.60
2023-05-05T13:56:23.440Z,25.80
2023-05-05T13:58:50.237Z,25.30
2023-05-05T14:01:17.003Z,25.20
2023-05-05T14:03:43.694Z,25.40
2023-05-05T14:06:10.394Z,24.70
2023-05-05T14:08:37.222Z,24.10
2023-05-05T14:11:03.944Z,23.70
2023-05-05T14:13:30.556Z,23.80
2023-05-05T14:15:58.412Z,24.60
2023-05-05T14:18:25.379Z,25.30
2023-05-05T14:20:52.108Z,26.40
2023-05-05T14:23:18.832Z,26.50
2023-05-05T14:25:45.489Z,26.40
2023-05-05T14:28:12.194Z,26.00
2023-05-05T14:30:39.341Z,25.60
2023-05-05T14:33:06.259Z,25.00
2023-05-05T14:35:32.930Z,24.20
2023-05-05T14:37:59.625Z,23.70
2023-05-05T14:40:26.444Z,23.50
2023-05-05T14:42:53.175Z,23.10
2023-05-05T14:45:19.789Z,23.60
2023-05-05T14:47:46.495Z,24.50
2023-05-05T14:50:14.204Z,24.70
2023-05-05T14:52:41.067Z,24.80
2023-05-05T14:55:08.133Z,25.00
2023-05-05T14:57:35.032Z,25.20
2023-05-05T15:00:01.765Z,25.20
2023-05-05T15:02:28.505Z,25.40
2023-05-05T15:04:55.161Z,26.40
2023-05-05T15:07:22.731Z,27.30
2023-05-05T15:09:49.439Z,27.70
2023-05-05T15:12:16.244Z,27.10
2023-05-05T15:14:42.859Z,26.50
2023-05-05T15:17:09.565Z,26.00
2023-05-05T15:19:36.185Z,25.80
2023-05-05T15:22:02.807Z,26.50
2023-05-05T15:24:30.049Z,27.40
2023-05-05T15:26:56.897Z,27.60
2023-05-05T15:29:23.575Z,27.90
2023-05-05T15:31:50.410Z,27.30
2023-05-05T15:34:17.089Z,27.10
2023-05-05T15:36:44.085Z,27.30
2023-05-05T15:39:10.967Z,27.30
2023-05-05T15:41:37.801Z,27.40
2023-05-05T15:44:04.937Z,26.90
2023-05-05T15:46:32.862Z,27.30
2023-05-05T15:48:59.693Z,27.70
2023-05-05T15:51:26.408Z,27.70
2023-05-05T15:53:53.374Z,27.00
2023-05-05T15:56:20.007Z,27.10
2023-05-05T15:58:46.821Z,27.40
2023-05-05T16:01:13.593Z,27.10
2023-05-05T16:03:40.468Z,27.20
2023-05-05T16:06:07.341Z,26.80
2023-05-05T16:08:33.988Z,26.80
2023-05-05T16:11:01.305Z,27.00
2023-05-05T16:13:28.105Z,27.10
2023-05-05T16:15:55.397Z,26.90
2023-05-05T16:18:22.015Z,27.20
2023-05-05T16:20:48.726Z,27.20
2023-05-05T16:23:15.369Z,27.10
2023-05-05T16:25:42.034Z,26.80
2023-05-05T16:28:08.677Z,26.60
2023-05-05T16:30:35.688Z,26.90
2023-05-05T16:33:02.353Z,26.60
2023-05-05T16:35:29.040Z,26.90
2023-05-05T16:37:56.307Z,27.00
2023-05-05T16:40:22.984Z,27.00
2023-05-05T16:42:49.732Z,27.20
2023-05-05T16:45:16.438Z,27.60
2023-05-05T16:47:43.120Z,26.70
2023-05-05T16:50:10.003Z,26.20
2023-05-05T16:52:36.625Z,25.50
2023-05-05T16:55:04.839Z,25.20
2023-05-05T16:57:31.732Z,25.10
2023-05-05T16:59:58.448Z,25.20
2023-05-05T17:02:25.133Z,25.10
2023-05-05T17:04:51.874Z,25.30
2023-05-05T17:07:18.508Z,25.50
2023-05-05T17:09:45.116Z,26.10
2023-05-05T17:12:11.751Z,27.10
2023-05-05T17:14:39.581Z,28.00
2023-05-05T17:17:06.287Z,28.50
2023-05-05T17:19:32.881Z,28.70
2023-05-05T17:21:59.492Z,28.40
2023-05-05T17:24:26.158Z,27.80
2023-05-05T17:26:52.746Z,27.60
2023-05-05T17:29:23.421Z,26.70
2023-05-05T17:31:50.743Z,26.40
2023-05-05T17:34:17.468Z,26.10
2023-05-05T17:36:44.084Z,25.90
2023-05-05T17:39:11.430Z,25.80
2023-05-05T17:41:38.380Z,25.50
2023-05-05T17:44:05.066Z,24.80
2023-05-05T17:46:31.771Z,23.90
2023-05-05T17:48:58.521Z,23.10
2023-05-05T17:51:26.259Z,22.40
2023-05-05T17:53:53.200Z,22.10
2023-05-05T17:56:19.962Z,22.20
2023-05-05T17:58:48.123Z,22.40
2023-05-05T18:01:24.319Z,22.50
2023-05-05T18:03:51.142Z,22.30
2023-05-05T18:06:17.939Z,22.20
2023-05-05T18:08:45.463Z,21.90
2023-05-05T18:11:12.074Z,21.60
2023-05-05T18:13:39.465Z,21.50
2023-05-05T18:16:06.595Z,21.50
2023-05-05T18:18:33.498Z,21.30
2023-05-05T18:21:00.337Z,21.10
2023-05-05T18:23:27.016Z,21.00
2023-05-05T18:25:53.630Z,20.80
2023-05-05T18:28:20.607Z,20.70
2023-05-05T18:30:47.285Z,20.60
2023-05-05T18:33:13.968Z,20.50
2023-05-05T18:35:40.667Z,20.40
2023-05-05T18:38:07.357Z,20.20
2023-05-05T18:40:34.276Z,20.00
2023-05-05T18:43:01.033Z,19.70
2023-05-05T18:45:27.964Z,19.50
2023-05-05T18:47:54.795Z,19.40
2023-05-05T18:50:21.512Z,19.20
2023-05-05T18:52:48.298Z,19.00
2023-05-05T18:55:14.895Z,18.80
2023-05-05T18:57:41.609Z,18.60
2023-05-05T19:00:10.108Z,18.50
2023-05-05T19:02:36.962Z,18.40
2023-05-05T19:05:03.881Z,18.40
2023-05-05T19:07:35.511Z,18.30
2023-05-05T19:10:03.814Z,18.20
2023-05-05T19:12:30.430Z,18.20
2023-05-05T19:14:57.078Z,18.20
2023-05-05T19:17:23.791Z,18.00
2023-05-05T19:19:50.734Z,18.00
2023-05-05T19:22:17.606Z,17.90
2023-05-05T19:24:44.250Z,17.80
2023-05-05T19:27:15.493Z,17.70
2023-05-05T19:29:43.219Z,17.60
2023-05-05T19:32:09.941Z,17.60
2023-05-05T19:34:36.758Z,17.60
2023-05-05T19:37:03.739Z,17.50
2023-05-05T19:39:30.470Z,17.40
2023-05-05T19:41:57.219Z,17.40
2023-05-05T19:44:24.523Z,17.40
2023-05-05T19:46:52.346Z,17.30
2023-05-05T19:49:19.132Z,17.30
2023-05-05T19:51:47.651Z,17.20
2023-05-05T19:54:14.325Z,17.20
2023-05-05T19:56:40.904Z,17.10
2023-05-05T19:59:07.609Z,17.10
2023-05-05T20:01:34.964Z,17.00
2023-05-05T20:04:03.209Z,16.90
2023-05-05T20:06:29.815Z,16.80
2023-05-05T20:08:56.520Z,16.70
2023-05-05T20:11:23.372Z,16.60
2023-05-05T20:13:50.262Z,16.50
2023-05-05T20:16:17.129Z,16.40
2023-05-05T20:18:43.917Z,16.30
2023-05-05T20:21:10.845Z,16.20
2023-05-05T20:23:37.597Z,16.20
2023-05-05T20:26:04.292Z,16.10
2023-05-05T20:28:34.054Z,16.10
2023-05-05T20:31:01.025Z,15.90
2023-05-05T20:33:28.205Z,15.80
2023-05-05T20:35:54.991Z,15.80
2023-05-05T20:38:21.646Z,15.80
2023-05-05T20:40:48.416Z,15.70
2023-05-05T20:43:15.089Z,15.60
2023-05-05T20:45:42.137Z,15.60
2023-05-05T20:48:11.189Z,15.50
2023-05-05T20:50:40.732Z,15.40
2023-05-05T20:53:07.657Z,15.40
2023-05-05T20:55:34.354Z,15.40
2023-05-05T20:58:01.193Z,15.30
2023-05-05T21:00:28.088Z,15.30
2023-05-05T21:02:56.838Z,15.20
2023-05-05T21:05:23.697Z,15.20
2023-05-05T21:07:51.010Z,15.20
2023-05-05T21:10:17.731Z,15.20
2023-05-05T21:12:44.402Z,15.10
2023-05-05T21:15:11.597Z,15.10
2023-05-05T21:17:38.526Z,15.00
2023-05-05T21:20:05.396Z,14.90
2023-05-05T21:22:32.686Z,14.90
2023-05-05T21:25:18.366Z,14.80
2023-05-05T21:27:45.119Z,14.70
2023-05-05T21:30:12.189Z,14.70
2023-05-05T21:32:39.917Z,14.70
2023-05-05T21:35:06.862Z,14.60
2023-05-05T21:37:33.605Z,14.50
2023-05-05T21:40:00.334Z,14.60
2023-05-05T21:42:28.899Z,14.60
2023-05-05T21:44:55.573Z,14.50
2023-05-05T21:47:22.354Z,14.50
2023-05-05T21:49:48.978Z,14.50
2023-05-05T21:52:15.820Z,14.50
2023-05-05T21:54:42.511Z,14.40
2023-05-05T21:57:09.203Z,14.40
2023-05-05T21:59:35.989Z,14.40
2023-05-05T22:02:02.748Z,14.30
2023-05-05T22:04:29.434Z,14.30
2023-05-05T22:06:56.468Z,14.30
2023-05-05T22:09:23.292Z,14.20
2023-05-05T22:11:50.389Z,14.20
2023-05-05T22:14:17.222Z,14.20
2023-05-05T22:16:44.122Z,14.20
2023-05-05T22:19:10.938Z,14.20
2023-05-05T22:21:37.755Z,14.20
2023-05-05T22:24:04.763Z,14.20
2023-05-05T22:26:31.533Z,14.10
2023-05-05T22:28:58.353Z,14.10
2023-05-05T22:31:25.195Z,14.10
2023-05-05T22:33:51.986Z,14.00
2023-05-05T22:36:18.852Z,14.00
2023-05-05T22:38:45.708Z,14.00
2023-05-05T22:41:12.569Z,14.00
2023-05-05T22:43:39.314Z,13.90
2023-05-05T22:46:06.064Z,13.90
2023-05-05T22:48:32.677Z,13.90
2023-05-05T22:50:59.962Z,13.80
2023-05-05T22:53:28.024Z,13.80
2023-05-05T22:55:55.304Z,13.70
2023-05-05T22:58:22.324Z,13.70
2023-05-05T23:00:49.972Z,13.70
2023-05-05T23:03:16.772Z,13.60
2023-05-05T23:05:48.166Z,13.70
2023-05-05T23:08:15.137Z,13.70
2023-05-05T23:10:41.959Z,13.70
2023-05-05T23:13:08.823Z,13.60
2023-05-05T23:15:35.758Z,13.60
2023-05-05T23:18:02.695Z,13.60
2023-05-05T23:20:29.601Z,13.60
2023-05-05T23:22:56.335Z,13.60
2023-05-05T23:25:23.180Z,13.60
2023-05-05T23:27:49.959Z,13.60
2023-05-05T23:30:16.644Z,13.50
2023-05-05T23:32:45.336Z,13.50
2023-05-05T23:35:12.322Z,13.40
2023-05-05T23:37:39.150Z,13.40
2023-05-05T23:40:06.906Z,13.40
2023-05-05T23:42:33.598Z,13.40
2023-05-05T23:45:00.585Z,13.40
2023-05-05T23:47:27.542Z,13.30
2023-05-05T23:49:54.744Z,13.30
2023-05-05T23:52:22.005Z,13.30
2023-05-05T23:54:48.841Z,13.30
2023-05-05T23:57:16.101Z,13.30
2023-05-05T23:59:42.834Z,13.30
